Time;durP1;ratioP1;P1;durP2;ratioP2;P2;SDS_P1;SDS_P2;PMS_P1;PMS_P2;Temp;Humidity;BMP_temperature;BMP_pressure;BME280_temperature;BME280_humidity;BME280_pressure;Samples;Min_cycle;Max_cycle;Signal;HPM_P1;HPM_P2
2024/03/02 00:02:19;;;;;;;35.05;19.27;;;307.30;2304.00;;;;;;5100515;27;20107;-79
2024/03/02 00:04:45;;;;;;;38.08;18.10;;;307.20;2304.00;;;;;;5102612;28;20028;-77
2024/03/02 00:07:14;;;;;;;30.55;18.60;;;307.20;2304.00;;;;;;5107143;28;20026;-77
2024/03/02 00:09:40;;;;;;;33.50;18.88;;;282.50;2278.40;;;;;;5114589;27;20031;-80
2024/03/02 00:12:07;;;;;;;32.65;20.38;;;282.50;2278.40;;;;;;5116874;28;20401;-80
2024/03/02 00:14:33;;;;;;;30.83;18.20;;;282.50;2278.40;;;;;;5114927;27;20059;-78
2024/03/02 00:17:02;;;;;;;31.52;18.80;;;282.40;2278.40;;;;;;5112133;28;20059;-80
2024/03/02 00:19:28;;;;;;;29.58;17.85;;;282.40;2278.40;;;;;;5119895;28;20039;-78
2024/03/02 00:21:54;;;;;;;33.17;19.00;;;282.50;2278.40;;;;;;5116784;28;20365;-78
2024/03/02 00:24:26;;;;;;;33.80;17.88;;;282.50;2278.40;;;;;;5114409;28;20039;-76
2024/03/02 00:26:52;;;;;;;29.00;16.17;;;282.40;2278.40;;;;;;5111126;28;20023;-77
2024/03/02 00:29:19;;;;;;;31.40;17.52;;;282.40;2278.40;;;;;;5120775;28;20035;-78
2024/03/02 00:31:46;;;;;;;26.63;17.15;;;282.30;2278.40;;;;;;5117216;28;20059;-77
2024/03/02 00:34:13;;;;;;;27.40;16.08;;;282.30;2278.40;;;;;;5108166;28;20059;-77
2024/03/02 00:36:39;;;;;;;29.17;16.88;;;282.20;2278.40;;;;;;5115170;28;20019;-78
2024/03/02 00:39:07;;;;;;;23.00;15.27;;;282.30;2278.40;;;;;;5115112;28;20046;-77
2024/03/02 00:41:35;;;;;;;24.42;15.13;;;282.30;2278.40;;;;;;5112401;28;20128;-77
2024/03/02 00:44:03;;;;;;;27.02;15.25;;;282.30;2278.40;;;;;;5105787;28;20035;-77
2024/03/02 00:46:40;;;;;;;23.48;14.73;;;282.20;2278.40;;;;;;5125301;28;20073;-77
2024/03/02 00:49:11;;;;;;;21.50;13.65;;;282.20;2278.40;;;;;;5102915;28;20050;-78
2024/03/02 00:51:38;;;;;;;22.38;14.65;;;282.10;2278.40;;;;;;5099901;28;20500;-77
2024/03/02 00:54:05;;;;;;;22.25;14.02;;;282.10;2278.40;;;;;;5113343;28;20046;-77
2024/03/02 00:56:32;;;;;;;22.83;14.73;;;282.10;2278.40;;;;;;5106215;28;20015;-77
2024/03/02 00:58:58;;;;;;;24.02;13.73;;;282.00;2278.40;;;;;;5097802;28;20553;-78
2024/03/02 01:01:24;;;;;;;20.67;12.88;;;282.10;2278.40;;;;;;5102976;28;20040;-80
2024/03/02 01:03:50;;;;;;;22.17;12.40;;;282.10;2278.40;;;;;;5102257;28;20028;-78
2024/03/02 01:06:16;;;;;;;20.60;12.25;;;282.10;2278.40;;;;;;5114838;28;20032;-77
2024/03/02 01:08:43;;;;;;;20.98;13.05;;;282.00;2278.40;;;;;;5108300;28;20520;-78
2024/03/02 01:11:09;;;;;;;21.38;13.55;;;282.00;2278.40;;;;;;5123379;28;20414;-77
2024/03/02 01:13:34;;;;;;;19.90;12.50;;;282.00;2278.40;;;;;;5109647;28;20039;-77
2024/03/02 01:16:01;;;;;;;22.13;12.77;;;282.00;2278.40;;;;;;5100696;28;20388;-77
2024/03/02 01:18:27;;;;;;;17.90;12.27;;;282.10;2278.40;;;;;;5114601;28;20047;-77
2024/03/02 01:20:55;;;;;;;16.95;11.88;;;282.10;2278.40;;;;;;5102598;28;20032;-77
2024/03/02 01:23:22;;;;;;;18.85;11.95;;;282.10;2278.40;;;;;;5102541;28;20392;-77
2024/03/02 01:25:48;;;;;;;17.10;12.05;;;282.10;2278.40;;;;;;5113465;28;20047;-79
2024/03/02 01:28:14;;;;;;;18.75;12.40;;;282.10;2278.40;;;;;;5105330;28;20236;-77
2024/03/02 01:30:40;;;;;;;16.90;11.98;;;282.10;2278.40;;;;;;5118577;28;20024;-78
2024/03/02 01:33:06;;;;;;;20.58;11.35;;;282.00;2278.40;;;;;;5106031;27;20047;-79
2024/03/02 01:35:32;;;;;;;16.95;11.73;;;281.90;2278.40;;;;;;5112758;27;20085;-78
2024/03/02 01:37:58;;;;;;;18.25;11.52;;;281.90;2278.40;;;;;;5116862;27;20496;-77
2024/03/02 01:40:28;;;;;;;19.33;11.27;;;282.00;2278.40;;;;;;5122317;27;20031;-79
2024/03/02 01:42:54;;;;;;;15.48;10.32;;;282.00;2278.40;;;;;;5110676;27;20429;-77
2024/03/02 01:45:20;;;;;;;16.23;9.77;;;282.00;2278.40;;;;;;5121131;27;20521;-77
2024/03/02 01:47:46;;;;;;;17.42;11.10;;;282.00;2278.40;;;;;;5106918;27;20040;-76
2024/03/02 01:50:13;;;;;;;19.17;10.80;;;282.00;2278.40;;;;;;5109939;28;20040;-78
2024/03/02 01:52:39;;;;;;;15.20;9.35;;;281.90;2278.40;;;;;;5108940;27;20055;-78
2024/03/02 01:55:08;;;;;;;17.35;10.10;;;281.90;2278.40;;;;;;5105691;28;20038;-77
2024/03/02 01:57:34;;;;;;;15.50;9.93;;;281.90;2278.40;;;;;;5106063;27;20419;-78
2024/03/02 02:00:00;;;;;;;16.02;9.98;;;281.90;2278.40;;;;;;5109469;28;20039;-77
2024/03/02 02:02:26;;;;;;;15.82;9.55;;;282.00;2278.40;;;;;;5111871;27;20485;-78
2024/03/02 02:04:52;;;;;;;14.95;9.73;;;282.00;2278.40;;;;;;5115388;27;20030;-78
2024/03/02 02:07:18;;;;;;;12.82;8.90;;;282.00;2278.40;;;;;;5108421;27;20073;-77
2024/03/02 02:09:44;;;;;;;19.38;10.32;;;282.00;2278.40;;;;;;5125020;27;20058;-78
2024/03/02 02:12:10;;;;;;;;;;;281.90;2278.40;;;;;;5114038;27;20035;-78
2024/03/02 02:14:36;;;;;;;14.40;10.40;;;281.90;2278.40;;;;;;5120225;27;19908;-77
2024/03/02 02:17:02;;;;;;;15.43;9.85;;;281.90;2278.40;;;;;;5108105;27;20530;-78
2024/03/02 02:19:28;;;;;;;20.48;11.25;;;281.90;2278.40;;;;;;5122615;27;20122;-78
2024/03/02 02:21:54;;;;;;;14.73;10.00;;;281.90;2278.40;;;;;;5103237;27;20059;-77
2024/03/02 02:24:20;;;;;;;18.75;10.65;;;281.90;2278.40;;;;;;5115455;27;20019;-77
2024/03/02 02:26:46;;;;;;;15.75;9.65;;;282.00;2278.40;;;;;;5116925;27;20032;-77
2024/03/02 02:29:12;;;;;;;16.05;10.52;;;281.80;2278.40;;;;;;5116144;27;20396;-77
2024/03/02 02:31:39;;;;;;;16.17;11.18;;;281.80;2278.40;;;;;;5108974;27;20024;-77
2024/03/02 02:34:05;;;;;;;18.10;10.10;;;281.80;2278.40;;;;;;5114490;27;20031;-77
2024/03/02 02:36:31;;;;;;;16.13;9.55;;;281.70;2278.40;;;;;;5115310;27;20098;-77
2024/03/02 02:39:03;;;;;;;16.00;10.48;;;281.60;2278.40;;;;;;5114163;28;20164;-77
2024/03/02 02:41:29;;;;;;;20.00;10.15;;;281.70;2278.40;;;;;;5113892;28;20392;-77
2024/03/02 02:43:56;;;;;;;17.50;10.30;;;281.60;2278.40;;;;;;5114042;28;20101;-77
2024/03/02 02:46:21;;;;;;;17.70;9.57;;;256.90;2252.80;;;;;;5115112;28;20012;-77
2024/03/02 02:48:48;;;;;;;16.80;9.88;;;281.60;2278.40;;;;;;5113556;28;20173;-78
2024/03/02 02:51:13;;;;;;;14.90;9.70;;;281.60;2278.40;;;;;;5113975;28;20027;-78
2024/03/02 02:53:42;;;;;;;16.70;9.98;;;281.60;2278.40;;;;;;5114931;28;20464;-77
2024/03/02 02:56:09;;;;;;;19.23;10.38;;;281.60;2278.40;;;;;;5113716;28;20024;-79
2024/03/02 02:58:35;;;;;;;14.30;9.38;;;281.60;2278.40;;;;;;5113862;28;20110;-78
2024/03/02 03:01:01;;;;;;;13.95;9.20;;;281.60;2278.40;;;;;;5113735;28;20067;-78
2024/03/02 03:03:26;;;;;;;14.65;9.85;;;281.60;2278.40;;;;;;5114454;28;20107;-78
2024/03/02 03:05:52;;;;;;;18.65;9.82;;;281.60;2278.40;;;;;;5114485;28;20042;-77
2024/03/02 03:08:18;;;;;;;;;;;281.60;2278.40;;;;;;5114093;28;20488;-78
2024/03/02 03:10:44;;;;;;;15.48;9.68;;;281.60;2278.40;;;;;;5113570;28;19998;-78
2024/03/02 03:13:10;;;;;;;18.50;9.43;;;256.90;2252.80;;;;;;5113268;28;20047;-78
2024/03/02 03:15:36;;;;;;;11.85;8.05;;;281.60;2278.40;;;;;;5114584;28;20059;-77
2024/03/02 03:18:03;;;;;;;16.85;8.82;;;281.60;2278.40;;;;;;5110891;28;20052;-78
2024/03/02 03:20:29;;;;;;;13.23;8.85;;;256.90;2252.80;;;;;;5108184;28;20023;-77
2024/03/02 03:22:56;;;;;;;13.68;10.02;;;256.90;2252.80;;;;;;5113459;28;20032;-78
2024/03/02 03:25:22;;;;;;;15.65;8.85;;;281.80;2278.40;;;;;;5114419;28;20381;-78
2024/03/02 03:27:47;;;;;;;13.82;7.50;;;281.60;2278.40;;;;;;5113308;28;20024;-77
2024/03/02 03:30:13;;;;;;;12.90;8.73;;;256.90;2252.80;;;;;;5113874;28;20031;-78
2024/03/02 03:32:40;;;;;;;12.80;8.30;;;256.90;2252.80;;;;;;5113373;28;20473;-77
2024/03/02 03:35:06;;;;;;;14.18;7.80;;;256.90;2252.80;;;;;;5113038;28;20058;-79
2024/03/02 03:37:34;;;;;;;13.27;8.65;;;256.90;2252.80;;;;;;5114454;28;20058;-78
2024/03/02 03:40:01;;;;;;;14.00;7.68;;;256.90;2252.80;;;;;;5112604;28;20043;-78
2024/03/02 03:42:27;;;;;;;11.32;7.32;;;256.90;2252.80;;;;;;5114187;28;20028;-77
2024/03/02 03:44:53;;;;;;;12.18;7.35;;;256.80;2252.80;;;;;;5112894;28;20027;-77
2024/03/02 03:47:19;;;;;;;13.05;7.18;;;256.80;2252.80;;;;;;5112970;28;20503;-77
2024/03/02 03:49:45;;;;;;;14.88;7.32;;;256.80;2252.80;;;;;;5112189;28;20400;-77
2024/03/02 03:52:11;;;;;;;13.77;7.38;;;256.70;2252.80;;;;;;5113947;28;20016;-77
2024/03/02 03:54:38;;;;;;;12.40;7.53;;;256.70;2252.80;;;;;;5113546;28;20374;-77
2024/03/02 03:57:04;;;;;;;14.10;7.63;;;256.70;2252.80;;;;;;5112600;28;20077;-77
2024/03/02 03:59:30;;;;;;;15.82;7.57;;;256.70;2252.80;;;;;;5112994;28;20111;-77
2024/03/02 04:01:56;;;;;;;13.25;6.93;;;256.60;2252.80;;;;;;5113452;28;20118;-77
2024/03/02 04:04:22;;;;;;;13.80;8.30;;;256.60;2252.80;;;;;;5112124;28;20023;-80
2024/03/02 04:06:48;;;;;;;11.52;7.07;;;256.60;2252.80;;;;;;5113033;28;20039;-77
2024/03/02 04:09:13;;;;;;;14.55;7.57;;;256.60;2252.80;;;;;;5112275;28;20044;-77
2024/03/02 04:11:39;;;;;;;14.38;7.97;;;256.60;2252.80;;;;;;5112624;28;20034;-79
2024/03/02 04:14:06;;;;;;;11.70;7.30;;;256.60;2252.80;;;;;;5112432;28;20031;-77
2024/03/02 04:16:31;;;;;;;12.73;7.35;;;256.60;2252.80;;;;;;5113616;28;20012;-77
2024/03/02 04:18:57;;;;;;;12.55;8.43;;;256.50;2252.80;;;;;;5111937;28;20055;-77
2024/03/02 04:21:23;;;;;;;13.77;8.02;;;256.60;2252.80;;;;;;5112408;28;20023;-77
2024/03/02 04:23:49;;;;;;;14.43;7.25;;;256.50;2252.80;;;;;;5111886;28;20385;-77
2024/03/02 04:26:19;;;;;;;10.90;6.35;;;256.60;2252.80;;;;;;5113607;28;20020;-77
2024/03/02 04:28:45;;;;;;;12.35;7.30;;;256.50;2252.80;;;;;;5113509;28;20039;-77
2024/03/02 04:31:10;;;;;;;12.75;7.28;;;256.50;2252.80;;;;;;5111922;28;20031;-77
2024/03/02 04:33:36;;;;;;;12.70;6.78;;;256.50;2252.80;;;;;;5112263;28;20357;-77
2024/03/02 04:36:02;;;;;;;10.70;6.32;;;256.50;2252.80;;;;;;5112018;28;20035;-77
2024/03/02 04:38:28;;;;;;;15.32;8.25;;;256.50;2252.80;;;;;;5112121;28;20032;-77
2024/03/02 04:40:54;;;;;;;13.73;7.47;;;256.50;2252.80;;;;;;5112090;28;20427;-77
2024/03/02 04:43:20;;;;;;;11.85;6.07;;;256.50;2252.80;;;;;;5112265;28;20111;-76
2024/03/02 04:45:46;;;;;;;10.13;6.45;;;256.50;2252.80;;;;;;5112514;28;20020;-78
2024/03/02 04:48:11;;;;;;;;;;;256.50;2252.80;;;;;;5112244;28;20051;-76
2024/03/02 04:50:37;;;;;;;11.57;6.38;;;256.50;2252.80;;;;;;5112306;28;19908;-77
2024/03/02 04:53:03;;;;;;;10.00;6.07;;;256.40;2252.80;;;;;;5111699;28;20019;-77
2024/03/02 04:57:55;;;;;;;11.35;6.20;;;256.50;2252.80;;;;;;5113876;28;20065;-78
2024/03/02 05:00:21;;;;;;;12.10;7.13;;;256.30;2252.80;;;;;;5112194;28;20112;-78
2024/03/02 05:02:47;;;;;;;9.95;6.13;;;256.40;2252.80;;;;;;5108700;28;20534;-77
2024/03/02 05:05:15;;;;;;;11.43;5.53;;;256.40;2252.80;;;;;;5101870;28;20028;-77
2024/03/02 05:07:42;;;;;;;10.32;5.43;;;256.50;2252.80;;;;;;5114433;28;20019;-77
2024/03/02 05:10:08;;;;;;;7.82;5.82;;;256.50;2252.80;;;;;;5115586;28;20066;-78
2024/03/02 05:15:13;;;;;;;9.25;5.45;;;256.50;2252.80;;;;;;5105099;28;20024;-77
2024/03/02 05:17:40;;;;;;;9.85;5.07;;;256.50;2252.80;;;;;;5114769;28;20531;-77
2024/03/02 05:20:08;;;;;;;8.93;4.63;;;256.50;2252.80;;;;;;5115679;28;20434;-78
2024/03/02 05:22:34;;;;;;;8.45;5.13;;;256.40;2252.80;;;;;;5102066;28;20019;-77
2024/03/02 05:25:01;;;;;;;6.75;4.38;;;256.30;2252.80;;;;;;5115946;28;20115;-78
2024/03/02 05:27:30;;;;;;;7.30;4.60;;;256.50;2252.80;;;;;;5115222;28;20032;-77
2024/03/02 05:29:56;;;;;;;10.68;4.45;;;256.40;2252.80;;;;;;5116513;28;20457;-78
2024/03/02 05:32:21;;;;;;;8.50;4.82;;;256.40;2252.80;;;;;;5115391;28;20055;-77
2024/03/02 05:34:47;;;;;;;;;;;256.30;2252.80;;;;;;5115706;28;20477;-77
2024/03/02 05:37:13;;;;;;;6.10;4.07;;;256.30;2252.80;;;;;;5115375;28;19910;-77
2024/03/02 05:39:38;;;;;;;13.30;4.90;;;256.30;2252.80;;;;;;5116461;28;20019;-77
2024/03/02 05:42:04;;;;;;;8.95;4.70;;;256.40;2252.80;;;;;;5101526;28;20020;-77
2024/03/02 05:44:30;;;;;;;11.65;5.45;;;256.30;2252.80;;;;;;5115131;28;20480;-77
2024/03/02 05:46:56;;;;;;;;;;;256.40;2252.80;;;;;;5115241;28;20031;-77
2024/03/02 05:49:22;;;;;;;8.88;4.30;;;256.40;2252.80;;;;;;5116066;28;19923;-77
2024/03/02 05:51:47;;;;;;;6.57;4.10;;;256.40;2252.80;;;;;;5116038;28;20073;-77
2024/03/02 05:54:13;;;;;;;;;;;256.40;2252.80;;;;;;5115614;28;20119;-77
2024/03/02 05:56:39;;;;;;;9.95;4.85;;;256.30;2252.80;;;;;;5115024;28;19903;-77
2024/03/02 05:59:13;;;;;;;7.07;4.57;;;256.30;2252.80;;;;;;5114598;28;20063;-77
2024/03/02 06:01:39;;;;;;;7.50;4.85;;;256.40;2252.80;;;;;;5107968;27;20045;-77
2024/03/02 06:04:06;;;;;;;10.13;4.93;;;256.40;2252.80;;;;;;5116693;27;20031;-77
2024/03/02 06:06:34;;;;;;;10.77;4.82;;;256.40;2252.80;;;;;;5116036;27;20062;-77
2024/03/02 06:09:02;;;;;;;8.63;4.32;;;256.40;2252.80;;;;;;5101423;27;20040;-77
2024/03/02 06:11:28;;;;;;;11.25;5.50;;;256.50;2252.80;;;;;;5123009;27;20024;-77
2024/03/02 06:13:54;;;;;;;10.18;4.78;;;256.50;2252.80;;;;;;5101191;28;20031;-77
2024/03/02 06:16:19;;;;;;;8.32;4.78;;;256.50;2252.80;;;;;;5115850;27;20030;-77
2024/03/02 06:18:45;;;;;;;8.10;4.78;;;256.60;2252.80;;;;;;5109959;27;20051;-77
2024/03/02 06:21:11;;;;;;;8.30;4.65;;;256.60;2252.80;;;;;;5108149;27;20034;-77
2024/03/02 06:23:37;;;;;;;10.52;5.72;;;256.60;2252.80;;;;;;5119047;27;20028;-77
2024/03/02 06:26:03;;;;;;;7.90;4.60;;;256.60;2252.80;;;;;;5112535;27;20023;-77
2024/03/02 06:28:29;;;;;;;10.23;5.80;;;256.50;2252.80;;;;;;5111154;28;20023;-77
2024/03/02 06:30:55;;;;;;;8.95;4.88;;;256.70;2252.80;;;;;;5115583;27;20099;-78
2024/03/02 06:33:20;;;;;;;8.20;4.15;;;256.70;2252.80;;;;;;5108297;27;20034;-77
2024/03/02 06:35:46;;;;;;;16.38;5.63;;;256.70;2252.80;;;;;;5116318;27;20158;-78
2024/03/02 06:38:12;;;;;;;8.32;4.57;;;256.80;2252.80;;;;;;5110080;28;20031;-77
2024/03/02 06:40:39;;;;;;;9.82;4.78;;;256.70;2252.80;;;;;;5097165;28;20076;-78
2024/03/02 06:43:05;;;;;;;11.35;4.65;;;256.80;2252.80;;;;;;5117719;27;20035;-77
2024/03/02 06:45:31;;;;;;;7.05;4.40;;;256.80;2252.80;;;;;;5106325;27;20479;-77
2024/03/02 06:47:56;;;;;;;7.13;4.65;;;256.80;2252.80;;;;;;5105528;27;20032;-77
2024/03/02 06:50:22;;;;;;;;;;;256.80;2252.80;;;;;;5115371;27;20031;-77
2024/03/02 06:52:48;;;;;;;7.00;4.82;;;256.90;2252.80;;;;;;5104680;28;19904;-77
2024/03/02 06:55:13;;;;;;;9.98;5.10;;;256.90;2252.80;;;;;;5109510;27;20115;-77
2024/03/02 06:57:39;;;;;;;6.70;4.22;;;256.90;2252.80;;;;;;5103686;28;20063;-77
2024/03/02 07:00:08;;;;;;;7.85;4.80;;;256.90;2252.80;;;;;;5104284;27;20023;-77
2024/03/02 07:02:34;;;;;;;10.50;5.25;;;281.60;2278.40;;;;;;5115175;27;20020;-78
2024/03/02 07:05:00;;;;;;;7.63;4.72;;;256.90;2252.80;;;;;;5111947;27;20130;-78
2024/03/02 07:07:26;;;;;;;9.00;5.38;;;256.90;2252.80;;;;;;5115378;27;20052;-76
2024/03/02 07:09:52;;;;;;;9.02;5.60;;;256.90;2252.80;;;;;;5108516;27;20095;-78
2024/03/02 07:12:17;;;;;;;;;;;281.60;2278.40;;;;;;5114018;27;20024;-80
2024/03/02 07:17:27;;;;;;;8.15;4.85;;;281.60;2278.40;;;;;;5104754;27;20062;-77
2024/03/02 07:19:53;;;;;;;7.93;5.07;;;281.70;2278.40;;;;;;5127610;27;20329;-78
2024/03/02 07:22:19;;;;;;;9.73;5.13;;;281.70;2278.40;;;;;;5105951;27;20023;-76
2024/03/02 07:24:47;;;;;;;7.13;4.78;;;281.70;2278.40;;;;;;5112199;27;20040;-76
2024/03/02 07:27:14;;;;;;;11.40;5.32;;;281.90;2278.40;;;;;;5104342;27;20024;-76
2024/03/02 07:29:40;;;;;;;9.27;5.30;;;281.90;2278.40;;;;;;5106839;27;20050;-77
2024/03/02 07:32:07;;;;;;;9.23;4.68;;;282.00;2278.40;;;;;;5109974;27;20104;-77
2024/03/02 07:34:32;;;;;;;10.65;4.90;;;281.90;2278.40;;;;;;5107866;27;20043;-77
2024/03/02 07:36:59;;;;;;;9.88;5.47;;;282.00;2278.40;;;;;;5123092;27;20023;-79
2024/03/02 07:39:25;;;;;;;8.65;4.72;;;281.90;2278.40;;;;;;5106628;28;20050;-78
2024/03/02 07:41:51;;;;;;;10.10;4.90;;;281.90;2278.40;;;;;;5111235;27;20079;-78
2024/03/02 07:44:18;;;;;;;8.77;4.90;;;282.00;2278.40;;;;;;5109125;28;20420;-74
2024/03/02 07:46:51;;;;;;;8.18;4.75;;;281.90;2278.40;;;;;;5107704;28;20023;-75
2024/03/02 07:49:19;;;;;;;8.70;5.07;;;281.90;2278.40;;;;;;5107527;27;20042;-75
2024/03/02 07:51:44;;;;;;;9.07;4.35;;;281.90;2278.40;;;;;;5116537;27;20585;-76
2024/03/02 07:54:10;;;;;;;10.70;4.82;;;282.00;2278.40;;;;;;5106571;27;20114;-74
2024/03/02 07:56:36;;;;;;;9.38;4.82;;;282.00;2278.40;;;;;;5104753;28;20030;-75
2024/03/02 07:59:03;;;;;;;12.90;5.90;;;282.00;2278.40;;;;;;5096359;28;20040;-76
2024/03/02 08:01:32;;;;;;;9.15;5.22;;;282.10;2278.40;;;;;;5119568;27;20035;-76
2024/03/02 08:04:00;;;;;;;11.68;5.18;;;282.20;2278.40;;;;;;5116772;27;20034;-77
2024/03/02 08:06:30;;;;;;;15.75;5.57;;;282.20;2278.40;;;;;;5115516;27;20092;-76
2024/03/02 08:08:56;;;;;;;11.32;5.90;;;282.10;2278.40;;;;;;5112099;28;20129;-76
2024/03/02 08:11:22;;;;;;;11.73;5.93;;;282.10;2278.40;;;;;;5122851;27;20471;-77
2024/03/02 08:13:49;;;;;;;12.40;5.10;;;282.10;2278.40;;;;;;5117608;27;20128;-77
2024/03/02 08:16:16;;;;;;;13.35;4.68;;;282.20;2278.40;;;;;;5121252;27;20405;-77
2024/03/02 08:18:42;;;;;;;8.02;5.40;;;282.30;2278.40;;;;;;5110492;28;20051;-75
2024/03/02 08:21:08;;;;;;;8.75;5.03;;;282.30;2278.40;;;;;;5113365;27;20019;-75
2024/03/02 08:23:34;;;;;;;10.15;4.90;;;282.30;2278.40;;;;;;5111939;28;20024;-75
2024/03/02 08:26:00;;;;;;;8.18;5.38;;;282.30;2278.40;;;;;;5099352;28;20040;-74
2024/03/02 08:28:26;;;;;;;8.10;4.63;;;282.30;2278.40;;;;;;5100346;28;20032;-75
2024/03/02 08:30:52;;;;;;;6.80;4.30;;;282.40;2278.40;;;;;;5103759;28;20030;-76
2024/03/02 08:33:18;;;;;;;9.02;5.00;;;282.30;2278.40;;;;;;5098693;28;20042;-80
2024/03/02 08:35:44;;;;;;;12.45;5.28;;;282.50;2278.40;;;;;;5112437;28;20427;-79
2024/03/02 08:38:10;;;;;;;7.82;4.93;;;282.50;2278.40;;;;;;5118496;28;20048;-76
2024/03/02 08:40:35;;;;;;;;;;;282.50;2278.40;;;;;;5110163;28;20031;-78
2024/03/02 08:43:01;;;;;;;8.18;4.97;;;307.20;2304.00;;;;;;5124010;27;19904;-75
2024/03/02 08:45:27;;;;;;;7.30;4.32;;;307.20;2304.00;;;;;;5105854;27;20027;-77
2024/03/02 08:47:52;;;;;;;9.48;4.93;;;307.20;2304.00;;;;;;5112103;27;20038;-76
2024/03/02 08:50:18;;;;;;;10.18;5.18;;;307.30;2304.00;;;;;;5108149;28;20036;-77
2024/03/02 08:52:44;;;;;;;8.63;5.07;;;307.30;2304.00;;;;;;5114795;27;20434;-75
2024/03/02 08:55:11;;;;;;;10.07;4.90;;;307.20;2304.00;;;;;;5112756;27;20031;-76
2024/03/02 08:57:37;;;;;;;9.05;5.53;;;307.30;2304.00;;;;;;5117129;27;20472;-75
2024/03/02 09:00:05;;;;;;;11.00;4.97;;;307.30;2304.00;;;;;;5126036;27;20027;-76
2024/03/02 09:02:31;;;;;;;8.70;4.93;;;307.90;2304.00;;;;;;5121020;27;20114;-76
2024/03/02 09:04:57;;;;;;;9.35;5.55;;;307.40;2304.00;;;;;;5111590;27;20499;-76
2024/03/02 09:07:23;;;;;;;8.55;4.53;;;307.50;2304.00;;;;;;5109788;28;20042;-80
2024/03/02 09:09:49;;;;;;;10.77;5.32;;;307.40;2304.00;;;;;;5114986;27;20067;-80
2024/03/02 09:12:15;;;;;;;6.75;4.50;;;307.40;2304.00;;;;;;5115354;27;20070;-79
2024/03/02 09:14:41;;;;;;;6.93;3.90;;;307.40;2304.00;;;;;;5109191;27;20016;-81
2024/03/02 09:17:10;;;;;;;9.85;5.38;;;307.50;2304.00;;;;;;5112427;27;20102;-80
2024/03/02 09:19:36;;;;;;;10.95;5.15;;;307.80;2304.00;;;;;;5112165;27;20092;-78
2024/03/02 09:22:03;;;;;;;12.07;4.97;;;307.80;2304.00;;;;;;5118274;27;20015;-80
2024/03/02 09:24:29;;;;;;;14.00;4.88;;;307.80;2304.00;;;;;;5129354;27;20027;-80
2024/03/02 09:26:54;;;;;;;7.70;4.75;;;307.90;2304.00;;;;;;5119767;27;20023;-80
2024/03/02 09:29:20;;;;;;;12.82;5.38;;;308.10;2304.00;;;;;;5111100;27;20039;-79
2024/03/02 09:31:46;;;;;;;10.27;5.10;;;308.10;2304.00;;;;;;5123735;27;20360;-75
2024/03/02 09:34:14;;;;;;;15.15;5.38;;;308.10;2304.00;;;;;;5123391;27;20030;-77
2024/03/02 09:36:39;;;;;;;10.25;4.65;;;308.10;2304.00;;;;;;5105970;28;20473;-76
2024/03/02 09:39:09;;;;;;;9.82;5.03;;;333.00;2329.60;;;;;;5104215;27;20067;-76
2024/03/02 09:41:38;;;;;;;14.02;6.57;;;332.90;2329.60;;;;;;5116082;27;20094;-77
2024/03/02 09:44:05;;;;;;;8.45;4.80;;;333.10;2329.60;;;;;;5112999;27;20075;-76
2024/03/02 09:46:31;;;;;;;7.88;4.50;;;332.90;2329.60;;;;;;5114284;27;20067;-77
2024/03/02 09:48:57;;;;;;;8.68;4.60;;;332.90;2329.60;;;;;;5115369;27;20095;-76
2024/03/02 09:51:23;;;;;;;7.20;4.22;;;332.90;2329.60;;;;;;5113537;27;20016;-73
2024/03/02 09:53:49;;;;;;;7.50;5.40;;;333.20;2329.60;;;;;;5109289;27;20035;-74
2024/03/02 09:56:16;;;;;;;6.63;4.13;;;333.30;2329.60;;;;;;5107310;27;20100;-73
2024/03/02 09:58:42;;;;;;;16.23;7.50;;;333.50;2329.60;;;;;;5105449;28;20020;-81
2024/03/02 10:01:09;;;;;;;14.98;7.50;;;333.40;2329.60;;;;;;5115486;27;20085;-75
2024/03/02 10:03:37;;;;;;;9.88;5.07;;;333.60;2329.60;;;;;;5103461;28;20035;-77
2024/03/02 10:06:22;;;;;;;16.77;6.95;;;358.90;2329.60;;;;;;5125576;27;20137;-79
2024/03/02 10:08:49;;;;;;;7.72;3.85;;;358.80;2329.60;;;;;;5120185;27;20120;-75
2024/03/02 10:11:37;;;;;;;10.85;6.07;;;358.70;2329.60;;;;;;5124154;27;20019;-74
2024/03/02 10:14:10;;;;;;;11.50;5.22;;;358.70;2329.60;;;;;;5113536;27;20028;-75
2024/03/02 10:16:37;;;;;;;11.30;5.03;;;358.90;2329.60;;;;;;5121326;27;20023;-77
2024/03/02 10:19:20;;;;;;;6.93;4.10;;;358.80;2329.60;;;;;;5117842;27;20047;-75
2024/03/02 10:21:53;;;;;;;8.45;4.32;;;359.00;2329.60;;;;;;5109970;27;20027;-75
2024/03/02 10:24:20;;;;;;;8.02;4.25;;;359.30;2329.60;;;;;;5105596;27;20456;-75
2024/03/02 10:26:47;;;;;;;10.88;5.85;;;384.10;2329.60;;;;;;5115187;27;20028;-75
2024/03/02 10:29:13;;;;;;;9.13;5.13;;;384.00;2329.60;;;;;;5113477;27;20156;-75
2024/03/02 10:31:41;;;;;;;7.05;4.60;;;359.30;2329.60;;;;;;5108796;28;20031;-77
2024/03/02 10:34:08;;;;;;;8.30;4.90;;;384.30;2329.60;;;;;;5114227;27;20705;-80
2024/03/02 10:36:35;;;;;;;7.68;5.15;;;384.50;2329.60;;;;;;5118685;27;20024;-78
2024/03/02 10:39:04;;;;;;;10.23;4.85;;;384.20;2329.60;;;;;;5117216;27;20038;-80
2024/03/02 10:41:36;;;;;;;8.85;4.90;;;384.40;2329.60;;;;;;5106282;27;20094;-75
2024/03/02 10:44:09;;;;;;;7.82;4.72;;;384.10;2329.60;;;;;;5108708;27;20024;-76
2024/03/02 10:46:37;;;;;;;19.77;6.20;;;359.20;2329.60;;;;;;5104838;27;20129;-76
2024/03/02 10:49:04;;;;;;;11.27;5.07;;;359.30;2329.60;;;;;;5115744;27;20122;-75
2024/03/02 10:51:32;;;;;;;10.32;5.68;;;359.20;2329.60;;;;;;5104351;27;20027;-76
2024/03/02 10:54:00;;;;;;;10.50;5.90;;;359.20;2329.60;;;;;;5108254;28;20024;-75
2024/03/02 10:56:31;;;;;;;6.90;3.95;;;384.00;2329.60;;;;;;5106257;28;20047;-78
2024/03/02 10:59:18;;;;;;;8.98;5.70;;;359.30;2329.60;;;;;;5095882;28;20072;-76
2024/03/02 11:01:47;;;;;;;9.18;5.20;;;359.20;2329.60;;;;;;5109919;28;20055;-76
2024/03/02 11:04:15;;;;;;;7.88;4.80;;;359.10;2329.60;;;;;;5111206;27;20481;-79
2024/03/02 11:06:48;;;;;;;9.90;5.13;;;359.20;2329.60;;;;;;5116083;27;20045;-77
2024/03/02 11:09:16;;;;;;;6.85;4.50;;;359.30;2329.60;;;;;;5112196;28;20067;-75
2024/03/02 11:11:44;;;;;;;7.85;5.05;;;359.30;2329.60;;;;;;5120347;27;20101;-76
2024/03/02 11:14:18;;;;;;;13.40;7.80;;;359.20;2329.60;;;;;;5112583;27;20032;-75
2024/03/02 11:16:45;;;;;;;11.32;6.20;;;359.20;2329.60;;;;;;5104482;28;20095;-76
2024/03/02 11:19:15;;;;;;;9.00;4.72;;;384.10;2329.60;;;;;;5106169;27;20058;-78
2024/03/02 11:21:41;;;;;;;10.27;6.00;;;359.20;2329.60;;;;;;5108054;28;20110;-77
2024/03/02 11:24:36;;;;;;;13.77;6.75;;;384.00;2329.60;;;;;;5112452;27;20072;-79
2024/03/02 11:27:12;;;;;;;11.07;7.80;;;359.30;2329.60;;;;;;5055162;28;20115;-77
2024/03/02 11:29:41;;;;;;;8.57;5.55;;;359.30;2329.60;;;;;;5072453;28;20040;-79
2024/03/02 11:32:25;;;;;;;8.45;5.68;;;359.10;2329.60;;;;;;5070915;28;20067;-79
2024/03/02 11:34:52;;;;;;;12.93;6.80;;;384.00;2329.60;;;;;;5058350;28;20032;-76
2024/03/02 11:37:22;;;;;;;10.18;5.80;;;384.10;2329.60;;;;;;5076825;28;20028;-81
2024/03/02 11:39:50;;;;;;;7.18;4.97;;;384.10;2329.60;;;;;;5056371;28;20105;-74
2024/03/02 11:42:17;;;;;;;8.23;4.43;;;384.00;2329.60;;;;;;5076714;28;20409;-76
2024/03/02 11:44:45;;;;;;;7.18;4.72;;;359.30;2329.60;;;;;;5057708;28;20048;-75
2024/03/02 11:47:16;;;;;;;7.95;4.65;;;359.20;2329.60;;;;;;5078211;28;20093;-76
2024/03/02 11:49:43;;;;;;;6.82;4.38;;;359.20;2329.60;;;;;;5067821;28;20146;-75
2024/03/02 11:52:13;;;;;;;6.85;4.40;;;359.30;2329.60;;;;;;5072820;28;20024;-78
2024/03/02 11:54:40;;;;;;;8.50;4.32;;;359.30;2329.60;;;;;;5054740;28;20101;-72
2024/03/02 11:57:10;;;;;;;8.35;4.57;;;384.20;2329.60;;;;;;5069697;28;20144;-72
2024/03/02 11:59:37;;;;;;;12.82;7.68;;;384.30;2329.60;;;;;;5085390;28;20032;-75
2024/03/02 12:02:03;;;;;;;7.82;4.82;;;384.60;2329.60;;;;;;5074158;28;20032;-75
2024/03/02 12:04:30;;;;;;;9.65;5.40;;;384.70;2329.60;;;;;;5111391;27;20040;-74
2024/03/02 12:07:01;;;;;;;7.75;4.80;;;384.50;2329.60;;;;;;5111945;28;20020;-73
2024/03/02 12:09:30;;;;;;;8.70;5.43;;;384.60;2329.60;;;;;;5107635;28;20055;-73
2024/03/02 12:12:09;;;;;;;7.95;5.18;;;384.40;2329.60;;;;;;5120554;27;20042;-76
2024/03/02 12:14:37;;;;;;;15.52;6.28;;;384.40;2329.60;;;;;;5098592;28;20039;-75
2024/03/02 12:17:04;;;;;;;10.60;6.45;;;384.60;2329.60;;;;;;5110576;27;20036;-74
2024/03/02 12:19:31;;;;;;;9.30;5.68;;;384.60;2329.60;;;;;;5117461;28;20058;-76
2024/03/02 12:21:58;;;;;;;9.70;4.50;;;384.70;2329.60;;;;;;5110170;28;20511;-75